createdAt,value
2022-09-17T00:04:23.633Z,12.55
2022-09-17T00:06:51.015Z,12.64
2022-09-17T00:12:32.625Z,12.67
2022-09-17T00:15:00.916Z,12.64
2022-09-17T00:17:28.796Z,12.61
2022-09-17T00:19:56.687Z,12.61
2022-09-17T00:25:17.004Z,12.63
2022-09-17T00:27:45.567Z,12.57
2022-09-17T00:30:13.647Z,12.61
2022-09-17T00:32:40.621Z,12.61
2022-09-17T00:35:08.800Z,12.57
2022-09-17T00:37:36.618Z,12.69
2022-09-17T00:40:05.243Z,12.69
2022-09-17T00:42:32.528Z,12.67
2022-09-17T00:45:01.152Z,12.66
2022-09-17T00:47:39.714Z,12.67
2022-09-17T00:50:09.789Z,12.64
2022-09-17T00:52:41.565Z,12.61
2022-09-17T00:55:31.889Z,12.53
2022-09-17T00:58:26.512Z,12.49
2022-09-17T01:00:55.061Z,12.41
2022-09-17T01:03:22.826Z,12.25
2022-09-17T01:06:13.624Z,12.39
2022-09-17T01:08:59.021Z,12.36
2022-09-17T01:11:54.733Z,12.29
2022-09-17T01:14:25.538Z,12.31
2022-09-17T01:17:30.602Z,12.33
2022-09-17T01:20:23.094Z,12.14
2022-09-17T01:23:07.611Z,12.26
2022-09-17T01:26:10.160Z,12.18
2022-09-17T01:28:38.671Z,12.20
2022-09-17T01:31:17.609Z,12.35
2022-09-17T01:34:19.411Z,12.25
2022-09-17T01:40:41.978Z,12.20
2022-09-17T01:43:18.121Z,12.31
2022-09-17T01:46:04.420Z,12.36
2022-09-17T01:48:36.220Z,12.32
2022-09-17T01:51:07.748Z,12.18
2022-09-17T01:53:59.339Z,12.22
2022-09-17T01:56:38.543Z,12.31
2022-09-17T01:59:33.233Z,12.29
2022-09-17T02:02:27.746Z,12.28
2022-09-17T02:05:47.992Z,12.35
2022-09-17T02:08:31.642Z,12.26
2022-09-17T02:11:11.619Z,12.22
2022-09-17T02:13:52.620Z,12.17
2022-09-17T02:16:29.365Z,12.24
2022-09-17T02:19:29.580Z,12.17
2022-09-17T02:22:24.350Z,12.15
2022-09-17T02:25:30.337Z,12.01
2022-09-17T02:28:43.071Z,12.14
2022-09-17T02:31:11.734Z,12.09
2022-09-17T03:02:51.692Z,11.94
2022-09-17T03:53:56.751Z,11.88
2022-09-17T03:56:29.841Z,12.04
2022-09-17T03:59:05.497Z,12.09
2022-09-17T04:01:33.411Z,12.01
2022-09-17T04:04:05.777Z,12.01
2022-09-17T04:06:32.792Z,11.95
2022-09-17T04:09:06.179Z,11.97
2022-09-17T04:39:50.135Z,11.84
2022-09-17T04:42:45.116Z,11.84
2022-09-17T04:45:17.872Z,11.85
2022-09-17T04:47:44.683Z,11.85
2022-09-17T04:50:43.488Z,11.83
2022-09-17T04:53:38.326Z,11.76
2022-09-17T05:20:05.287Z,11.78
2022-09-17T05:22:32.725Z,11.83
2022-09-17T05:25:00.460Z,11.71
2022-09-17T05:27:33.500Z,11.80
2022-09-17T05:30:05.667Z,11.84
2022-09-17T05:32:32.707Z,11.85
2022-09-17T05:35:06.032Z,11.87
2022-09-17T05:37:39.997Z,11.91
2022-09-17T05:40:09.327Z,11.97
2022-09-17T05:42:36.739Z,11.99
2022-09-17T05:45:05.715Z,12.05
2022-09-17T05:47:58.893Z,11.93
2022-09-17T05:50:27.548Z,12.08
2022-09-17T05:55:51.701Z,12.06
2022-09-17T05:58:19.752Z,12.09
2022-09-17T06:01:21.247Z,12.04
2022-09-17T06:03:48.820Z,12.22
2022-09-17T06:06:20.722Z,12.17
2022-09-17T06:08:48.734Z,12.20
2022-09-17T06:11:21.684Z,12.12
2022-09-17T06:13:49.956Z,12.02
2022-09-17T06:16:21.723Z,12.15
2022-09-17T06:18:50.327Z,12.18
2022-09-17T06:21:24.450Z,12.11
2022-09-17T06:23:56.776Z,12.20
2022-09-17T06:29:16.724Z,12.22
2022-09-17T06:35:03.210Z,12.15
2022-09-17T06:37:32.392Z,12.28
2022-09-17T06:40:01.005Z,12.29
2022-09-17T06:42:28.739Z,12.33
2022-09-17T06:45:00.432Z,12.31
2022-09-17T06:47:57.029Z,12.31
2022-09-17T06:50:25.574Z,12.06
2022-09-17T06:52:59.335Z,12.20
2022-09-17T07:32:37.976Z,12.81
2022-09-17T07:42:18.733Z,12.80
2022-09-17T07:44:47.363Z,12.91
2022-09-17T07:47:14.645Z,12.85
2022-09-17T07:49:46.574Z,13.08
2022-09-17T07:52:47.135Z,13.14
2022-09-17T07:55:15.305Z,13.15
2022-09-17T07:57:43.418Z,13.25
2022-09-17T08:04:32.701Z,13.45
2022-09-17T11:20:26.166Z,15.19
2022-09-17T12:14:20.005Z,15.71
2022-09-17T12:33:41.596Z,15.73
2022-09-17T12:36:28.931Z,15.58
2022-09-17T12:42:28.120Z,15.80
2022-09-17T12:48:06.893Z,15.90
2022-09-17T12:51:14.444Z,15.96
2022-09-17T12:54:09.065Z,15.70
2022-09-17T12:57:15.403Z,15.96
2022-09-17T13:00:05.277Z,15.86
2022-09-17T13:02:55.916Z,15.86
2022-09-17T14:16:43.254Z,14.74
2022-09-17T14:19:16.891Z,14.46
2022-09-17T14:22:05.560Z,14.53
2022-09-17T14:24:37.713Z,14.39
2022-09-17T14:27:29.413Z,14.46
2022-09-17T14:30:18.928Z,14.43
2022-09-17T14:32:59.670Z,14.43
2022-09-17T14:38:39.715Z,14.33
2022-09-17T14:41:18.138Z,14.25
2022-09-17T14:44:07.206Z,14.39
2022-09-17T14:46:47.537Z,14.35
2022-09-17T14:49:29.111Z,14.24
2022-09-17T14:51:58.458Z,13.91
2022-09-17T14:54:36.542Z,14.01
2022-09-17T14:57:26.293Z,14.02
2022-09-17T15:00:29.840Z,14.04
2022-09-17T15:03:01.312Z,13.90
2022-09-17T15:05:35.004Z,14.04
2022-09-17T15:08:17.749Z,13.98
2022-09-17T15:10:55.407Z,13.95
2022-09-17T15:13:28.875Z,13.97
2022-09-17T15:19:26.054Z,13.94
2022-09-17T15:22:21.785Z,13.97
2022-09-17T15:25:22.521Z,14.08
2022-09-17T15:27:54.213Z,13.97
2022-09-17T15:31:03.072Z,14.05
2022-09-17T15:33:32.251Z,14.14
2022-09-17T15:42:33.217Z,13.91
2022-09-17T15:45:42.609Z,14.01
2022-09-17T15:48:27.673Z,14.02
2022-09-17T15:51:04.453Z,13.95
2022-09-17T15:53:37.232Z,13.98
2022-09-17T15:56:18.838Z,13.97
2022-09-17T15:58:47.040Z,14.00
2022-09-17T16:01:16.816Z,14.02
2022-09-17T16:03:46.227Z,14.07
2022-09-17T16:09:56.927Z,13.93
2022-09-17T16:12:26.850Z,13.94
2022-09-17T16:14:56.805Z,14.02
2022-09-17T16:23:55.985Z,13.93
2022-09-17T16:26:29.756Z,13.86
2022-09-17T16:29:07.186Z,13.91
2022-09-17T16:31:43.327Z,13.87
2022-09-17T16:34:10.548Z,13.80
2022-09-17T16:36:42.872Z,13.87
2022-09-17T16:42:08.636Z,13.67
2022-09-17T16:53:27.790Z,13.64
2022-09-17T16:56:20.764Z,13.66
2022-09-17T16:59:09.876Z,13.52
2022-09-17T17:01:37.799Z,13.67
2022-09-17T17:04:05.280Z,13.45
2022-09-17T17:06:33.502Z,13.53
2022-09-17T17:09:01.104Z,13.52
2022-09-17T17:11:36.091Z,13.50
2022-09-17T17:16:56.723Z,13.40
2022-09-17T17:19:30.408Z,13.40
2022-09-17T17:21:59.129Z,13.46
2022-09-17T17:24:26.844Z,13.39
2022-09-17T17:26:54.824Z,13.45
2022-09-17T17:29:22.913Z,13.29
2022-09-17T17:35:07.551Z,13.40
2022-09-17T17:37:34.743Z,13.38
2022-09-17T17:40:26.826Z,13.38
2022-09-17T17:42:59.416Z,13.34
2022-09-17T17:45:26.809Z,13.22
2022-09-17T17:47:54.703Z,13.28
2022-09-17T17:53:14.572Z,13.21
2022-09-17T17:55:42.495Z,13.10
2022-09-17T17:58:15.476Z,13.16
2022-09-17T18:00:48.679Z,13.11
2022-09-17T18:03:16.791Z,13.11
2022-09-17T18:14:14.572Z,13.07
2022-09-17T18:16:42.531Z,13.05
2022-09-17T18:19:11.580Z,13.12
2022-09-17T18:21:38.766Z,13.12
2022-09-17T18:24:10.564Z,13.04
2022-09-17T18:26:42.529Z,13.04
2022-09-17T18:29:11.926Z,12.98
2022-09-17T18:31:38.785Z,12.97
2022-09-17T18:34:32.331Z,12.98
2022-09-17T18:37:00.725Z,12.98
2022-09-17T18:39:58.023Z,12.97
2022-09-17T18:42:16.858Z,13.00
2022-09-17T18:44:44.805Z,12.97
2022-09-17T18:47:12.561Z,12.98
2022-09-17T18:49:40.532Z,12.93
2022-09-17T18:52:12.565Z,12.94
2022-09-17T18:54:40.506Z,12.85
2022-09-17T18:57:08.705Z,12.79
2022-09-17T18:59:36.555Z,12.84
2022-09-17T19:02:04.607Z,12.87
2022-09-17T19:04:32.888Z,12.97
2022-09-17T19:07:00.905Z,12.83
2022-09-17T19:09:28.612Z,12.93
2022-09-17T19:12:22.244Z,12.87
2022-09-17T19:15:16.434Z,12.85
2022-09-17T19:17:45.196Z,12.84
2022-09-17T19:20:39.576Z,12.88
2022-09-17T19:23:07.390Z,12.66
2022-09-17T19:25:42.973Z,12.83
2022-09-17T19:28:10.482Z,12.85
2022-09-17T19:34:03.005Z,12.85
2022-09-17T19:36:30.791Z,12.76
2022-09-17T19:39:03.669Z,12.80
2022-09-17T19:41:33.980Z,12.83
2022-09-17T19:44:03.721Z,12.71
2022-09-17T19:55:44.778Z,12.74
2022-09-17T19:58:13.216Z,12.70
2022-09-17T20:00:51.667Z,12.69
2022-09-17T20:03:22.274Z,12.70
2022-09-17T20:05:50.647Z,12.59
2022-09-17T20:25:32.758Z,12.42
2022-09-17T20:28:01.748Z,12.15
2022-09-17T20:31:10.421Z,12.20
2022-09-17T20:36:40.588Z,12.15
2022-09-17T20:39:21.973Z,12.12
2022-09-17T20:42:41.441Z,12.01
2022-09-17T20:45:08.639Z,12.01
2022-09-17T20:48:00.583Z,12.08
2022-09-17T20:50:28.807Z,12.15
2022-09-17T20:52:56.559Z,11.84
2022-09-17T20:55:24.720Z,11.88
2022-09-17T20:57:53.964Z,11.76
2022-09-17T21:00:46.805Z,11.85
2022-09-17T21:03:17.876Z,11.84
2022-09-17T21:06:17.829Z,11.80
2022-09-17T21:08:53.028Z,11.91
2022-09-17T21:11:26.088Z,11.95
2022-09-17T21:14:00.583Z,12.05
2022-09-17T21:16:54.092Z,11.90
2022-09-17T21:19:25.365Z,11.81
2022-09-17T21:22:23.981Z,11.81
2022-09-17T21:27:44.681Z,11.77
2022-09-17T21:30:12.903Z,11.90
2022-09-17T21:32:41.036Z,11.91
2022-09-17T21:38:12.626Z,11.98
2022-09-17T21:40:45.940Z,11.71
2022-09-17T21:43:13.099Z,11.93
2022-09-17T21:45:44.636Z,11.87
2022-09-17T21:48:42.327Z,11.87
2022-09-17T21:54:13.724Z,11.87
2022-09-17T21:56:40.896Z,11.85
2022-09-17T21:59:11.719Z,11.87
2022-09-17T22:01:47.723Z,11.90
2022-09-17T22:04:19.892Z,11.83
2022-09-17T22:06:53.852Z,11.85
2022-09-17T22:09:34.462Z,11.65
2022-09-17T22:12:07.874Z,11.70
2022-09-17T22:14:34.549Z,11.73
2022-09-17T22:25:34.620Z,11.73
2022-09-17T22:28:28.850Z,11.70
2022-09-17T22:37:15.762Z,11.84
2022-09-17T22:39:42.552Z,11.88
2022-09-17T22:42:14.577Z,11.83
2022-09-17T22:44:42.611Z,11.76
2022-09-17T22:50:08.026Z,11.60
2022-09-17T22:52:40.298Z,11.71
2022-09-17T22:55:09.031Z,11.71
2022-09-17T22:58:50.486Z,11.50
2022-09-17T23:01:25.204Z,11.56
2022-09-17T23:03:58.085Z,11.48
2022-09-17T23:06:29.816Z,11.57
2022-09-17T23:09:02.764Z,11.57
2022-09-17T23:11:39.501Z,11.57
2022-09-17T23:17:07.670Z,11.57
2022-09-17T23:25:18.571Z,11.45
2022-09-17T23:27:50.525Z,11.53
2022-09-17T23:30:18.572Z,11.50
2022-09-17T23:32:46.730Z,11.57
2022-09-17T23:35:38.818Z,11.53
2022-09-17T23:38:06.606Z,11.53
2022-09-17T23:40:34.758Z,11.43
2022-09-17T23:43:31.732Z,11.42
2022-09-17T23:45:58.675Z,11.36
2022-09-17T23:48:26.517Z,11.45
2022-09-17T23:50:54.623Z,11.50
2022-09-17T23:53:22.565Z,11.50
2022-09-17T23:55:51.062Z,11.39
2022-09-17T23:58:18.707Z,11.40
